UAE243 EGKK-OMDB
Flight info
| Callsign | UAE243 |
|---|---|
| Flight time | N/A |
| Altitude | 37000 |
| Route | DCT MIMFO Y312 DVR UL9 KONAN DCT KOK DCT LIRSU DCT LALMI DCT ABTAL DCT RIDAR DCT ALUTU DCT ESEGA DCT STEIN DCT MOPUG DCT MIVSA DCT NEKUL DCT ABRUT DCT WRN/N0481F390 DCT ARTAT UP975 ERGUN UL124 BONAM L319 DASDO L223 LAM G666 ORSAR R784 TATLA L223 VUTEB VUTEB3D |
| Aircraft | A388/J-SADE2E3FGHIJ3J4J5M1RWXY/LB1D1 |
Departure
| Time | N/A |
|---|---|
| Airport | London Gatwick Airport (EGKK) |
Arrival
| Time | 2026-04-26 20:40 |
|---|---|
| Airport | Dubai International Airport (OMDB) |
| Time | Latitude | Longitude | Altitude | Speed | Heading |
|---|---|---|---|---|---|
| 2026-04-26 19:37 | 29.80450 | 51.70522 | 39098 ft | 517 kts | 168° |
| 2026-04-26 19:37 | 29.73709 | 51.73474 | 39099 ft | 516 kts | 168° |
| 2026-04-26 19:38 | 29.67054 | 51.76383 | 39050 ft | 511 kts | 168° |
| 2026-04-26 19:38 | 29.60367 | 51.79301 | 39111 ft | 520 kts | 168° |
| 2026-04-26 19:39 | 29.53613 | 51.82247 | 39123 ft | 518 kts | 168° |
| 2026-04-26 19:39 | 29.46851 | 51.85192 | 39113 ft | 520 kts | 168° |
| 2026-04-26 19:40 | 29.40101 | 51.88126 | 39102 ft | 520 kts | 168° |
| 2026-04-26 19:40 | 29.33313 | 51.91073 | 39106 ft | 520 kts | 168° |
| 2026-04-26 19:41 | 29.26604 | 51.93982 | 39088 ft | 520 kts | 168° |
| 2026-04-26 19:41 | 29.22059 | 51.95950 | 39091 ft | 520 kts | 168° |
| 2026-04-26 19:42 | 29.13058 | 51.99842 | 39103 ft | 521 kts | 168° |
| 2026-04-26 19:42 | 29.06262 | 52.02776 | 39086 ft | 521 kts | 168° |
| 2026-04-26 19:43 | 28.99483 | 52.05698 | 39084 ft | 522 kts | 168° |
| 2026-04-26 19:43 | 28.92679 | 52.08650 | 39078 ft | 525 kts | 166° |
| 2026-04-26 19:44 | 28.86136 | 52.12526 | 39076 ft | 539 kts | 155° |
| 2026-04-26 19:44 | 28.79802 | 52.17154 | 39062 ft | 539 kts | 155° |
| 2026-04-26 19:45 | 28.73479 | 52.21729 | 39077 ft | 539 kts | 155° |
| 2026-04-26 19:45 | 28.67167 | 52.26277 | 39045 ft | 538 kts | 155° |
| 2026-04-26 19:46 | 28.60864 | 52.30813 | 39055 ft | 538 kts | 155° |
| 2026-04-26 19:46 | 28.55576 | 52.34613 | 39043 ft | 538 kts | 155° |
| 2026-04-26 19:47 | 28.50301 | 52.38398 | 39046 ft | 538 kts | 155° |
| 2026-04-26 19:47 | 28.41874 | 52.44434 | 39007 ft | 539 kts | 155° |
| 2026-04-26 19:48 | 28.35535 | 52.48967 | 39023 ft | 538 kts | 155° |
| 2026-04-26 19:48 | 28.29225 | 52.53473 | 39005 ft | 537 kts | 155° |
| 2026-04-26 19:49 | 28.23963 | 52.57226 | 39005 ft | 536 kts | 155° |
| 2026-04-26 19:49 | 28.17642 | 52.61727 | 38982 ft | 535 kts | 155° |
| 2026-04-26 19:50 | 28.11315 | 52.66227 | 38982 ft | 535 kts | 155° |
| 2026-04-26 19:50 | 28.05030 | 52.70691 | 38979 ft | 536 kts | 155° |
| 2026-04-26 19:51 | 27.98686 | 52.75190 | 38977 ft | 536 kts | 155° |
| 2026-04-26 19:51 | 27.92390 | 52.79649 | 38988 ft | 536 kts | 155° |
| 2026-04-26 19:52 | 27.86051 | 52.84132 | 38989 ft | 535 kts | 155° |
| 2026-04-26 19:52 | 27.79772 | 52.88567 | 38978 ft | 535 kts | 155° |
| 2026-04-26 19:53 | 27.73443 | 52.93030 | 38959 ft | 535 kts | 155° |
| 2026-04-26 19:53 | 27.67134 | 52.97473 | 38965 ft | 535 kts | 155° |
| 2026-04-26 19:54 | 27.60805 | 53.01925 | 38968 ft | 536 kts | 155° |
| 2026-04-26 19:54 | 27.54468 | 53.06376 | 38963 ft | 535 kts | 155° |
| 2026-04-26 19:55 | 27.48163 | 53.10797 | 38943 ft | 536 kts | 155° |
| 2026-04-26 19:55 | 27.41819 | 53.15229 | 38940 ft | 536 kts | 156° |
| 2026-04-26 19:56 | 27.35205 | 53.18837 | 38915 ft | 525 kts | 167° |
| 2026-04-26 19:56 | 27.28265 | 53.21207 | 38925 ft | 518 kts | 173° |
| 2026-04-26 19:57 | 27.21337 | 53.23316 | 38916 ft | 519 kts | 173° |
| 2026-04-26 19:57 | 27.14343 | 53.25466 | 38912 ft | 520 kts | 173° |
| 2026-04-26 19:58 | 27.07378 | 53.27603 | 38902 ft | 522 kts | 173° |
| 2026-04-26 19:58 | 27.00340 | 53.29758 | 38895 ft | 523 kts | 173° |
| 2026-04-26 19:59 | 26.93334 | 53.31901 | 38891 ft | 523 kts | 173° |
| 2026-04-26 19:59 | 26.86327 | 53.34122 | 38867 ft | 529 kts | 168° |
| 2026-04-26 20:00 | 26.79563 | 53.37685 | 38871 ft | 544 kts | 154° |
| 2026-04-26 20:00 | 26.73489 | 53.42840 | 38873 ft | 554 kts | 145° |
| 2026-04-26 20:01 | 26.67595 | 53.48422 | 38873 ft | 554 kts | 145° |
| 2026-04-26 20:01 | 26.61705 | 53.53954 | 38865 ft | 555 kts | 145° |
| 2026-04-26 20:02 | 26.55758 | 53.59458 | 38866 ft | 552 kts | 148° |
| 2026-04-26 20:02 | 26.50519 | 53.63478 | 38864 ft | 548 kts | 152° |
| 2026-04-26 20:03 | 26.43157 | 53.69025 | 38864 ft | 548 kts | 151° |
| 2026-04-26 20:03 | 26.36817 | 53.73809 | 38864 ft | 548 kts | 151° |
| 2026-04-26 20:04 | 26.30548 | 53.78533 | 38782 ft | 539 kts | 151° |
| 2026-04-26 20:04 | 26.27462 | 53.80860 | 38404 ft | 534 kts | 151° |
| 2026-04-26 20:04 | 26.24384 | 53.83174 | 37666 ft | 534 kts | 151° |
| 2026-04-26 20:05 | 26.21305 | 53.85486 | 36903 ft | 535 kts | 152° |
| 2026-04-26 20:05 | 26.18209 | 53.87810 | 36113 ft | 536 kts | 152° |
| 2026-04-26 20:05 | 26.15119 | 53.90128 | 35347 ft | 537 kts | 152° |
| 2026-04-26 20:05 | 26.12013 | 53.92459 | 34570 ft | 538 kts | 151° |
| 2026-04-26 20:06 | 26.09077 | 53.95094 | 33798 ft | 547 kts | 140° |
| 2026-04-26 20:06 | 26.06580 | 53.98301 | 33190 ft | 548 kts | 129° |
| 2026-04-26 20:06 | 26.04629 | 54.01857 | 32707 ft | 544 kts | 120° |
| 2026-04-26 20:06 | 26.02887 | 54.05573 | 32131 ft | 539 kts | 120° |
| 2026-04-26 20:07 | 26.01144 | 54.09247 | 31587 ft | 533 kts | 120° |
| 2026-04-26 20:07 | 25.99411 | 54.12882 | 31062 ft | 527 kts | 121° |
| 2026-04-26 20:07 | 25.97697 | 54.16472 | 30532 ft | 522 kts | 121° |
| 2026-04-26 20:07 | 25.96023 | 54.19979 | 30019 ft | 517 kts | 121° |
| 2026-04-26 20:08 | 25.94339 | 54.23504 | 29335 ft | 513 kts | 121° |
| 2026-04-26 20:08 | 25.92675 | 54.26989 | 28907 ft | 504 kts | 120° |
| 2026-04-26 20:08 | 25.91252 | 54.30537 | 28327 ft | 501 kts | 112° |
| 2026-04-26 20:08 | 25.90135 | 54.34134 | 27770 ft | 495 kts | 111° |
| 2026-04-26 20:09 | 25.89014 | 54.37729 | 27237 ft | 489 kts | 111° |
| 2026-04-26 20:09 | 25.87898 | 54.41277 | 26716 ft | 483 kts | 111° |
| 2026-04-26 20:09 | 25.86790 | 54.44792 | 26195 ft | 478 kts | 111° |
| 2026-04-26 20:09 | 25.85697 | 54.48263 | 25672 ft | 472 kts | 111° |
| 2026-04-26 20:10 | 25.84630 | 54.51650 | 25185 ft | 466 kts | 111° |
| 2026-04-26 20:10 | 25.83563 | 54.55033 | 24690 ft | 461 kts | 112° |
| 2026-04-26 20:10 | 25.82508 | 54.58376 | 24193 ft | 456 kts | 112° |
| 2026-04-26 20:10 | 25.81463 | 54.61681 | 23693 ft | 451 kts | 112° |
| 2026-04-26 20:11 | 25.80305 | 54.64900 | 23014 ft | 446 kts | 120° |
| 2026-04-26 20:11 | 25.78696 | 54.67747 | 22480 ft | 436 kts | 131° |
| 2026-04-26 20:11 | 25.76683 | 54.70208 | 21921 ft | 425 kts | 141° |
| 2026-04-26 20:12 | 25.72420 | 54.74648 | 20813 ft | 416 kts | 141° |
| 2026-04-26 20:12 | 25.70318 | 54.76858 | 20228 ft | 413 kts | 141° |
| 2026-04-26 20:12 | 25.68243 | 54.79039 | 19730 ft | 408 kts | 141° |
| 2026-04-26 20:12 | 25.66188 | 54.81198 | 19220 ft | 404 kts | 141° |
| 2026-04-26 20:13 | 25.64185 | 54.83298 | 18733 ft | 399 kts | 141° |
| 2026-04-26 20:13 | 25.62256 | 54.85515 | 18212 ft | 399 kts | 134° |
| 2026-04-26 20:13 | 25.60679 | 54.88048 | 17652 ft | 401 kts | 123° |
| 2026-04-26 20:13 | 25.59486 | 54.90835 | 17058 ft | 400 kts | 116° |
| 2026-04-26 20:14 | 25.58409 | 54.93668 | 16493 ft | 396 kts | 116° |
| 2026-04-26 20:14 | 25.57327 | 54.96462 | 15926 ft | 392 kts | 116° |
| 2026-04-26 20:14 | 25.56255 | 54.99208 | 15379 ft | 389 kts | 116° |
| 2026-04-26 20:14 | 25.55186 | 55.01947 | 15019 ft | 381 kts | 115° |
| 2026-04-26 20:15 | 25.54050 | 55.04536 | 14869 ft | 365 kts | 122° |
| 2026-04-26 20:15 | 25.52792 | 55.06926 | 14737 ft | 352 kts | 122° |
| 2026-04-26 20:15 | 25.51591 | 55.09236 | 14642 ft | 339 kts | 122° |
| 2026-04-26 20:15 | 25.50451 | 55.11442 | 14529 ft | 328 kts | 122° |
| 2026-04-26 20:16 | 25.49334 | 55.13602 | 14441 ft | 317 kts | 122° |
| 2026-04-26 20:16 | 25.48256 | 55.15685 | 14357 ft | 306 kts | 122° |
| 2026-04-26 20:16 | 25.47208 | 55.17705 | 14273 ft | 296 kts | 122° |
| 2026-04-26 20:16 | 25.46177 | 55.19637 | 14171 ft | 285 kts | 127° |
| 2026-04-26 20:17 | 25.44964 | 55.21280 | 14103 ft | 272 kts | 136° |
| 2026-04-26 20:17 | 25.43690 | 55.22805 | 13922 ft | 268 kts | 135° |
| 2026-04-26 20:17 | 25.42453 | 55.24320 | 13691 ft | 266 kts | 135° |
| 2026-04-26 20:17 | 25.41636 | 55.25327 | 13519 ft | 265 kts | 134° |
| 2026-04-26 20:18 | 25.39962 | 55.27389 | 12926 ft | 274 kts | 134° |
| 2026-04-26 20:18 | 25.38676 | 55.28968 | 12386 ft | 283 kts | 134° |
| 2026-04-26 20:18 | 25.37331 | 55.30617 | 11853 ft | 292 kts | 134° |
| 2026-04-26 20:18 | 25.35913 | 55.32252 | 11378 ft | 295 kts | 141° |
| 2026-04-26 20:19 | 25.34245 | 55.33538 | 10913 ft | 297 kts | 154° |
| 2026-04-26 20:19 | 25.32392 | 55.34584 | 10449 ft | 300 kts | 155° |
| 2026-04-26 20:19 | 25.30526 | 55.35661 | 9993 ft | 304 kts | 155° |
| 2026-04-26 20:19 | 25.28635 | 55.36770 | 9502 ft | 307 kts | 154° |
| 2026-04-26 20:20 | 25.26762 | 55.37871 | 9014 ft | 309 kts | 154° |
| 2026-04-26 20:20 | 25.24852 | 55.38992 | 8514 ft | 311 kts | 154° |
| 2026-04-26 20:20 | 25.22949 | 55.40108 | 8068 ft | 311 kts | 154° |
| 2026-04-26 20:20 | 25.21073 | 55.41209 | 7942 ft | 299 kts | 154° |
| 2026-04-26 20:21 | 25.19267 | 55.42270 | 7837 ft | 287 kts | 154° |
| 2026-04-26 20:21 | 25.17528 | 55.43289 | 7742 ft | 276 kts | 154° |
| 2026-04-26 20:21 | 25.15861 | 55.44266 | 7654 ft | 266 kts | 154° |
| 2026-04-26 20:21 | 25.14268 | 55.45199 | 7584 ft | 257 kts | 155° |
| 2026-04-26 20:22 | 25.12714 | 55.46109 | 7499 ft | 248 kts | 155° |
| 2026-04-26 20:22 | 25.11291 | 55.47103 | 7426 ft | 238 kts | 139° |
| 2026-04-26 20:22 | 25.10324 | 55.48501 | 7274 ft | 220 kts | 121° |
| 2026-04-26 20:22 | 25.09564 | 55.49938 | 6776 ft | 217 kts | 121° |
| 2026-04-26 20:23 | 25.08805 | 55.51316 | 6393 ft | 205 kts | 122° |
| 2026-04-26 20:23 | 25.08051 | 55.52661 | 5834 ft | 205 kts | 122° |
| 2026-04-26 20:23 | 25.07314 | 55.53975 | 5333 ft | 202 kts | 122° |
| 2026-04-26 20:23 | 25.06557 | 55.55327 | 5084 ft | 214 kts | 121° |
| 2026-04-26 20:24 | 25.05753 | 55.56768 | 5022 ft | 223 kts | 122° |
| 2026-04-26 20:24 | 25.04939 | 55.58216 | 5012 ft | 225 kts | 122° |
| 2026-04-26 20:24 | 25.04107 | 55.59694 | 5017 ft | 226 kts | 121° |
| 2026-04-26 20:24 | 25.03281 | 55.61171 | 5018 ft | 225 kts | 121° |
| 2026-04-26 20:25 | 25.02474 | 55.62630 | 4977 ft | 222 kts | 121° |
| 2026-04-26 20:25 | 25.01936 | 55.63603 | 4773 ft | 220 kts | 121° |
| 2026-04-26 20:25 | 25.00871 | 55.65531 | 4540 ft | 223 kts | 121° |
| 2026-04-26 20:25 | 25.00059 | 55.66998 | 4529 ft | 224 kts | 121° |
| 2026-04-26 20:26 | 24.99250 | 55.68445 | 4532 ft | 224 kts | 121° |
| 2026-04-26 20:26 | 24.98426 | 55.69913 | 4532 ft | 224 kts | 121° |
| 2026-04-26 20:26 | 24.97600 | 55.71384 | 4533 ft | 225 kts | 121° |
| 2026-04-26 20:26 | 24.96785 | 55.72837 | 4534 ft | 225 kts | 121° |
| 2026-04-26 20:27 | 24.95968 | 55.74294 | 4432 ft | 220 kts | 121° |
| 2026-04-26 20:27 | 24.95163 | 55.75728 | 4128 ft | 220 kts | 121° |
| 2026-04-26 20:27 | 24.94543 | 55.77234 | 4029 ft | 207 kts | 96° |
| 2026-04-26 20:27 | 24.94748 | 55.78683 | 4043 ft | 189 kts | 56° |
| 2026-04-26 20:28 | 24.95639 | 55.79643 | 4037 ft | 173 kts | 21° |
| 2026-04-26 20:28 | 24.96705 | 55.80260 | 4033 ft | 174 kts | 21° |
| 2026-04-26 20:28 | 24.97757 | 55.80945 | 4031 ft | 175 kts | 23° |
| 2026-04-26 20:28 | 24.98812 | 55.81552 | 4028 ft | 168 kts | 6° |
| 2026-04-26 20:29 | 24.99909 | 55.81430 | 4036 ft | 155 kts | 330° |
| 2026-04-26 20:29 | 25.00678 | 55.80646 | 4035 ft | 151 kts | 301° |
| 2026-04-26 20:29 | 25.01191 | 55.79624 | 4031 ft | 152 kts | 300° |
| 2026-04-26 20:29 | 25.01739 | 55.78630 | 4036 ft | 152 kts | 302° |
| 2026-04-26 20:30 | 25.02331 | 55.77657 | 4029 ft | 154 kts | 305° |
| 2026-04-26 20:30 | 25.02949 | 55.76676 | 4030 ft | 156 kts | 304° |
| 2026-04-26 20:30 | 25.03529 | 55.75677 | 4030 ft | 156 kts | 302° |
| 2026-04-26 20:30 | 25.04104 | 55.74645 | 4036 ft | 165 kts | 302° |
| 2026-04-26 20:31 | 25.04724 | 55.73531 | 4020 ft | 174 kts | 301° |
| 2026-04-26 20:31 | 25.05367 | 55.72377 | 4019 ft | 177 kts | 301° |
| 2026-04-26 20:31 | 25.06010 | 55.71220 | 4019 ft | 177 kts | 301° |
| 2026-04-26 20:31 | 25.06644 | 55.70078 | 4019 ft | 177 kts | 302° |
| 2026-04-26 20:32 | 25.07287 | 55.68920 | 4017 ft | 178 kts | 302° |
| 2026-04-26 20:32 | 25.07927 | 55.67767 | 3867 ft | 173 kts | 302° |
| 2026-04-26 20:32 | 25.08555 | 55.66634 | 3586 ft | 173 kts | 301° |
| 2026-04-26 20:32 | 25.09171 | 55.65523 | 3344 ft | 170 kts | 301° |
| 2026-04-26 20:33 | 25.09794 | 55.64401 | 3064 ft | 172 kts | 301° |
| 2026-04-26 20:33 | 25.10421 | 55.63269 | 3010 ft | 173 kts | 300° |
| 2026-04-26 20:33 | 25.11051 | 55.62133 | 3009 ft | 174 kts | 301° |
| 2026-04-26 20:33 | 25.11675 | 55.61011 | 2812 ft | 169 kts | 301° |
| 2026-04-26 20:34 | 25.12268 | 55.59941 | 2573 ft | 162 kts | 300° |
| 2026-04-26 20:34 | 25.12856 | 55.58877 | 2492 ft | 162 kts | 300° |
| 2026-04-26 20:34 | 25.13449 | 55.57806 | 2491 ft | 161 kts | 301° |
| 2026-04-26 20:34 | 25.13833 | 55.57115 | 2414 ft | 157 kts | 301° |
| 2026-04-26 20:35 | 25.14576 | 55.55772 | 2042 ft | 153 kts | 301° |
| 2026-04-26 20:35 | 25.15128 | 55.54773 | 2000 ft | 151 kts | 301° |
| 2026-04-26 20:35 | 25.15667 | 55.53805 | 1870 ft | 147 kts | 302° |
| 2026-04-26 20:35 | 25.16020 | 55.53165 | 1802 ft | 147 kts | 301° |
| 2026-04-26 20:36 | 25.16536 | 55.52231 | 1762 ft | 136 kts | 301° |
| 2026-04-26 20:36 | 25.17020 | 55.51355 | 1537 ft | 133 kts | 301° |
| 2026-04-26 20:36 | 25.17497 | 55.50489 | 1483 ft | 128 kts | 301° |
| 2026-04-26 20:36 | 25.17957 | 55.49660 | 1358 ft | 127 kts | 303° |
| 2026-04-26 20:37 | 25.18426 | 55.48823 | 1241 ft | 128 kts | 302° |
| 2026-04-26 20:37 | 25.18879 | 55.47978 | 1272 ft | 131 kts | 301° |
| 2026-04-26 20:37 | 25.19348 | 55.47105 | 1253 ft | 132 kts | 301° |
| 2026-04-26 20:37 | 25.19835 | 55.46216 | 1096 ft | 136 kts | 301° |
| 2026-04-26 20:38 | 25.20329 | 55.45294 | 859 ft | 143 kts | 300° |
| 2026-04-26 20:38 | 25.20860 | 55.44348 | 808 ft | 145 kts | 301° |
| 2026-04-26 20:38 | 25.21386 | 55.43414 | 729 ft | 147 kts | 301° |
| 2026-04-26 20:38 | 25.21926 | 55.42446 | 637 ft | 145 kts | 302° |
| 2026-04-26 20:39 | 25.22471 | 55.41507 | 463 ft | 148 kts | 300° |
| 2026-04-26 20:39 | 25.23003 | 55.40544 | 325 ft | 146 kts | 299° |
| 2026-04-26 20:39 | 25.23549 | 55.39557 | 119 ft | 150 kts | 300° |
| 2026-04-26 20:39 | 25.24042 | 55.38675 | 59 ft | 116 kts | 302° |
| 2026-04-26 20:40 | 25.24375 | 55.38081 | 48 ft | 62 kts | 301° |
| 2026-04-26 20:40 | 25.24522 | 55.37816 | 46 ft | 23 kts | 301° |
| 2026-04-26 20:40 | 25.24593 | 55.37654 | 43 ft | 24 kts | 288° |
| 2026-04-26 20:40 | 25.24617 | 55.37531 | 41 ft | 14 kts | 276° |
| 2026-04-26 20:41 | 25.24612 | 55.37425 | 39 ft | 13 kts | 244° |
| 2026-04-26 20:41 | 25.24553 | 55.37408 | 40 ft | 9 kts | 134° |
| 2026-04-26 20:41 | 25.24512 | 55.37479 | 41 ft | 13 kts | 120° |
| 2026-04-26 20:41 | 25.24461 | 55.37573 | 43 ft | 16 kts | 122° |
| 2026-04-26 20:42 | 25.24399 | 55.37676 | 46 ft | 16 kts | 129° |
| 2026-04-26 20:42 | 25.24309 | 55.37699 | 47 ft | 14 kts | 161° |
| 2026-04-26 20:42 | 25.24224 | 55.37735 | 45 ft | 14 kts | 189° |
| 2026-04-26 20:42 | 25.24138 | 55.37686 | 48 ft | 15 kts | 210° |
| 2026-04-26 20:43 | 25.24039 | 55.37620 | 44 ft | 17 kts | 217° |
| 2026-04-26 20:43 | 25.23975 | 55.37507 | 47 ft | 18 kts | 265° |
| 2026-04-26 20:43 | 25.24023 | 55.37373 | 45 ft | 21 kts | 300° |
| 2026-04-26 20:43 | 25.24092 | 55.37248 | 42 ft | 20 kts | 301° |
| 2026-04-26 20:44 | 25.24138 | 55.37162 | 40 ft | 7 kts | 301° |
| 2026-04-26 20:44 | 25.24176 | 55.37137 | 39 ft | 8 kts | 11° |
| 2026-04-26 20:44 | 25.24228 | 55.37162 | 39 ft | 0 kts | 32° |
| 2026-04-26 20:44 | 25.24244 | 55.37172 | 39 ft | 0 kts | 31° |